sensor_id;sensor_type;location;lat;lon;timestamp;P1;durP1;ratioP1;P2;durP2;ratioP2
5674;SDS011;2860;54.284;10.158;2022-07-29T00:02:11;3.17;;;3.08;;
5674;SDS011;2860;54.284;10.158;2022-07-29T00:04:36;4.43;;;2.95;;
5674;SDS011;2860;54.284;10.158;2022-07-29T00:07:03;3.17;;;3.00;;
5674;SDS011;2860;54.284;10.158;2022-07-29T00:09:29;3.00;;;2.80;;
5674;SDS011;2860;54.284;10.158;2022-07-29T00:11:55;3.00;;;2.90;;
5674;SDS011;2860;54.284;10.158;2022-07-29T00:14:23;2.70;;;2.67;;
5674;SDS011;2860;54.284;10.158;2022-07-29T00:16:49;3.60;;;3.47;;
5674;SDS011;2860;54.284;10.158;2022-07-29T00:19:14;3.00;;;2.72;;
5674;SDS011;2860;54.284;10.158;2022-07-29T00:21:40;3.08;;;2.97;;
5674;SDS011;2860;54.284;10.158;2022-07-29T00:24:05;3.13;;;3.05;;
5674;SDS011;2860;54.284;10.158;2022-07-29T00:26:31;2.78;;;2.67;;
5674;SDS011;2860;54.284;10.158;2022-07-29T00:29:00;2.75;;;2.55;;
5674;SDS011;2860;54.284;10.158;2022-07-29T00:31:27;3.78;;;2.63;;
5674;SDS011;2860;54.284;10.158;2022-07-29T00:33:53;2.80;;;2.70;;
5674;SDS011;2860;54.284;10.158;2022-07-29T00:36:19;3.42;;;2.95;;
5674;SDS011;2860;54.284;10.158;2022-07-29T00:38:46;2.50;;;2.50;;
5674;SDS011;2860;54.284;10.158;2022-07-29T00:41:12;3.08;;;2.85;;
5674;SDS011;2860;54.284;10.158;2022-07-29T00:43:38;2.75;;;2.75;;
5674;SDS011;2860;54.284;10.158;2022-07-29T00:46:03;2.72;;;2.63;;
5674;SDS011;2860;54.284;10.158;2022-07-29T00:48:29;3.20;;;3.10;;
5674;SDS011;2860;54.284;10.158;2022-07-29T00:50:56;2.95;;;2.75;;
5674;SDS011;2860;54.284;10.158;2022-07-29T00:53:22;4.80;;;2.80;;
5674;SDS011;2860;54.284;10.158;2022-07-29T00:55:49;3.38;;;3.08;;
5674;SDS011;2860;54.284;10.158;2022-07-29T00:58:15;2.42;;;2.42;;
5674;SDS011;2860;54.284;10.158;2022-07-29T01:00:40;2.90;;;2.80;;
5674;SDS011;2860;54.284;10.158;2022-07-29T01:03:06;2.47;;;2.47;;
5674;SDS011;2860;54.284;10.158;2022-07-29T01:05:33;2.47;;;2.47;;
5674;SDS011;2860;54.284;10.158;2022-07-29T01:07:59;2.95;;;2.80;;
5674;SDS011;2860;54.284;10.158;2022-07-29T01:10:26;2.72;;;2.50;;
5674;SDS011;2860;54.284;10.158;2022-07-29T01:12:53;2.88;;;2.78;;
5674;SDS011;2860;54.284;10.158;2022-07-29T01:15:21;2.55;;;2.55;;
5674;SDS011;2860;54.284;10.158;2022-07-29T01:23:55;2.58;;;2.50;;
5674;SDS011;2860;54.284;10.158;2022-07-29T01:34:21;3.00;;;2.90;;
5674;SDS011;2860;54.284;10.158;2022-07-29T01:37:06;2.72;;;2.63;;
5674;SDS011;2860;54.284;10.158;2022-07-29T01:39:43;3.40;;;3.20;;
5674;SDS011;2860;54.284;10.158;2022-07-29T01:42:14;3.33;;;3.10;;
5674;SDS011;2860;54.284;10.158;2022-07-29T01:44:57;2.95;;;2.85;;
5674;SDS011;2860;54.284;10.158;2022-07-29T01:47:40;2.55;;;2.35;;
5674;SDS011;2860;54.284;10.158;2022-07-29T01:53:35;3.05;;;2.95;;
5674;SDS011;2860;54.284;10.158;2022-07-29T01:56:07;2.60;;;2.60;;
5674;SDS011;2860;54.284;10.158;2022-07-29T01:58:35;3.85;;;2.60;;
5674;SDS011;2860;54.284;10.158;2022-07-29T02:01:03;2.25;;;2.25;;
5674;SDS011;2860;54.284;10.158;2022-07-29T02:03:30;2.50;;;2.50;;
5674;SDS011;2860;54.284;10.158;2022-07-29T02:05:57;2.75;;;2.55;;
5674;SDS011;2860;54.284;10.158;2022-07-29T02:08:24;4.18;;;3.13;;
5674;SDS011;2860;54.284;10.158;2022-07-29T02:10:51;2.40;;;2.38;;
5674;SDS011;2860;54.284;10.158;2022-07-29T02:13:18;2.58;;;2.47;;
5674;SDS011;2860;54.284;10.158;2022-07-29T02:15:45;2.80;;;2.80;;
5674;SDS011;2860;54.284;10.158;2022-07-29T02:18:14;3.13;;;2.67;;
5674;SDS011;2860;54.284;10.158;2022-07-29T02:20:43;3.65;;;3.17;;
5674;SDS011;2860;54.284;10.158;2022-07-29T02:23:11;2.25;;;2.17;;
5674;SDS011;2860;54.284;10.158;2022-07-29T02:25:39;2.70;;;2.60;;
5674;SDS011;2860;54.284;10.158;2022-07-29T02:28:07;3.15;;;3.13;;
5674;SDS011;2860;54.284;10.158;2022-07-29T02:30:34;2.60;;;2.60;;
5674;SDS011;2860;54.284;10.158;2022-07-29T02:33:04;3.10;;;2.70;;
5674;SDS011;2860;54.284;10.158;2022-07-29T02:35:31;3.50;;;2.67;;
5674;SDS011;2860;54.284;10.158;2022-07-29T02:37:57;2.60;;;2.60;;
5674;SDS011;2860;54.284;10.158;2022-07-29T02:40:42;3.10;;;3.00;;
5674;SDS011;2860;54.284;10.158;2022-07-29T02:43:08;2.85;;;2.80;;
5674;SDS011;2860;54.284;10.158;2022-07-29T02:45:35;3.17;;;3.08;;
5674;SDS011;2860;54.284;10.158;2022-07-29T02:48:05;2.60;;;2.60;;
5674;SDS011;2860;54.284;10.158;2022-07-29T02:50:36;3.30;;;3.13;;
5674;SDS011;2860;54.284;10.158;2022-07-29T02:58:14;3.10;;;2.95;;
5674;SDS011;2860;54.284;10.158;2022-07-29T03:00:47;2.88;;;2.58;;
5674;SDS011;2860;54.284;10.158;2022-07-29T03:03:16;2.97;;;2.97;;
5674;SDS011;2860;54.284;10.158;2022-07-29T03:05:44;3.03;;;2.40;;
5674;SDS011;2860;54.284;10.158;2022-07-29T03:08:11;2.90;;;2.88;;
5674;SDS011;2860;54.284;10.158;2022-07-29T03:10:38;2.42;;;2.42;;
5674;SDS011;2860;54.284;10.158;2022-07-29T03:13:07;3.00;;;2.90;;
5674;SDS011;2860;54.284;10.158;2022-07-29T03:15:34;2.25;;;2.25;;
5674;SDS011;2860;54.284;10.158;2022-07-29T03:18:00;2.67;;;2.67;;
5674;SDS011;2860;54.284;10.158;2022-07-29T03:20:26;2.70;;;2.67;;
5674;SDS011;2860;54.284;10.158;2022-07-29T03:22:52;2.50;;;2.50;;
5674;SDS011;2860;54.284;10.158;2022-07-29T03:25:18;3.05;;;2.85;;
5674;SDS011;2860;54.284;10.158;2022-07-29T03:27:45;2.95;;;2.75;;
5674;SDS011;2860;54.284;10.158;2022-07-29T03:30:12;3.97;;;2.30;;
5674;SDS011;2860;54.284;10.158;2022-07-29T03:32:38;3.35;;;2.30;;
5674;SDS011;2860;54.284;10.158;2022-07-29T03:35:05;2.97;;;2.88;;
5674;SDS011;2860;54.284;10.158;2022-07-29T03:37:31;2.20;;;2.20;;
5674;SDS011;2860;54.284;10.158;2022-07-29T03:39:58;2.42;;;2.42;;
5674;SDS011;2860;54.284;10.158;2022-07-29T03:42:28;2.83;;;2.55;;
5674;SDS011;2860;54.284;10.158;2022-07-29T03:44:58;2.70;;;2.58;;
5674;SDS011;2860;54.284;10.158;2022-07-29T03:47:28;2.40;;;2.40;;
5674;SDS011;2860;54.284;10.158;2022-07-29T03:49:59;2.20;;;2.17;;
5674;SDS011;2860;54.284;10.158;2022-07-29T03:52:29;2.63;;;2.60;;
5674;SDS011;2860;54.284;10.158;2022-07-29T03:54:55;3.05;;;2.50;;
5674;SDS011;2860;54.284;10.158;2022-07-29T04:00:42;2.80;;;2.60;;
5674;SDS011;2860;54.284;10.158;2022-07-29T04:03:09;2.55;;;2.35;;
5674;SDS011;2860;54.284;10.158;2022-07-29T04:05:35;2.33;;;2.33;;
5674;SDS011;2860;54.284;10.158;2022-07-29T04:08:01;2.60;;;2.60;;
5674;SDS011;2860;54.284;10.158;2022-07-29T04:10:26;3.50;;;3.40;;
5674;SDS011;2860;54.284;10.158;2022-07-29T04:12:52;2.55;;;2.55;;
5674;SDS011;2860;54.284;10.158;2022-07-29T04:15:18;2.67;;;2.58;;
5674;SDS011;2860;54.284;10.158;2022-07-29T04:17:43;2.90;;;2.72;;
5674;SDS011;2860;54.284;10.158;2022-07-29T04:20:09;2.55;;;2.55;;
5674;SDS011;2860;54.284;10.158;2022-07-29T04:22:38;3.05;;;2.90;;
5674;SDS011;2860;54.284;10.158;2022-07-29T04:25:04;3.28;;;3.13;;
5674;SDS011;2860;54.284;10.158;2022-07-29T04:27:30;2.63;;;2.63;;
5674;SDS011;2860;54.284;10.158;2022-07-29T04:29:55;2.92;;;2.72;;
5674;SDS011;2860;54.284;10.158;2022-07-29T04:32:21;3.10;;;2.90;;
5674;SDS011;2860;54.284;10.158;2022-07-29T04:34:46;2.78;;;2.58;;
5674;SDS011;2860;54.284;10.158;2022-07-29T04:37:12;4.07;;;2.40;;
5674;SDS011;2860;54.284;10.158;2022-07-29T04:39:37;3.45;;;2.80;;
5674;SDS011;2860;54.284;10.158;2022-07-29T04:42:03;2.40;;;2.20;;
5674;SDS011;2860;54.284;10.158;2022-07-29T04:44:29;3.55;;;2.40;;
5674;SDS011;2860;54.284;10.158;2022-07-29T04:46:54;3.00;;;2.83;;
5674;SDS011;2860;54.284;10.158;2022-07-29T04:49:20;3.83;;;2.75;;
5674;SDS011;2860;54.284;10.158;2022-07-29T04:51:46;3.72;;;3.47;;
5674;SDS011;2860;54.284;10.158;2022-07-29T04:54:11;2.70;;;2.60;;
5674;SDS011;2860;54.284;10.158;2022-07-29T04:56:37;2.85;;;2.10;;
5674;SDS011;2860;54.284;10.158;2022-07-29T04:59:02;2.85;;;2.72;;
5674;SDS011;2860;54.284;10.158;2022-07-29T05:01:28;2.45;;;2.35;;
5674;SDS011;2860;54.284;10.158;2022-07-29T05:03:54;3.20;;;3.08;;
5674;SDS011;2860;54.284;10.158;2022-07-29T05:06:19;2.47;;;2.25;;
5674;SDS011;2860;54.284;10.158;2022-07-29T05:08:45;1.95;;;1.95;;
5674;SDS011;2860;54.284;10.158;2022-07-29T05:11:10;2.55;;;2.45;;
5674;SDS011;2860;54.284;10.158;2022-07-29T05:13:36;3.05;;;2.53;;
5674;SDS011;2860;54.284;10.158;2022-07-29T05:16:01;3.28;;;2.45;;
5674;SDS011;2860;54.284;10.158;2022-07-29T05:18:27;4.38;;;3.90;;
5674;SDS011;2860;54.284;10.158;2022-07-29T05:20:53;3.03;;;2.08;;
5674;SDS011;2860;54.284;10.158;2022-07-29T05:23:18;3.53;;;2.80;;
5674;SDS011;2860;54.284;10.158;2022-07-29T05:25:44;2.70;;;2.60;;
5674;SDS011;2860;54.284;10.158;2022-07-29T05:28:10;4.93;;;3.97;;
5674;SDS011;2860;54.284;10.158;2022-07-29T05:30:36;3.35;;;3.20;;
5674;SDS011;2860;54.284;10.158;2022-07-29T05:33:01;3.38;;;3.10;;
5674;SDS011;2860;54.284;10.158;2022-07-29T05:35:27;3.22;;;2.63;;
5674;SDS011;2860;54.284;10.158;2022-07-29T05:37:52;2.42;;;2.42;;
5674;SDS011;2860;54.284;10.158;2022-07-29T05:40:18;2.50;;;2.40;;
5674;SDS011;2860;54.284;10.158;2022-07-29T05:42:43;4.50;;;3.13;;
5674;SDS011;2860;54.284;10.158;2022-07-29T05:45:09;2.60;;;2.60;;
5674;SDS011;2860;54.284;10.158;2022-07-29T05:47:35;4.05;;;2.92;;
5674;SDS011;2860;54.284;10.158;2022-07-29T05:50:00;3.80;;;3.47;;
5674;SDS011;2860;54.284;10.158;2022-07-29T05:52:26;2.88;;;2.70;;
5674;SDS011;2860;54.284;10.158;2022-07-29T05:54:51;3.33;;;3.13;;
5674;SDS011;2860;54.284;10.158;2022-07-29T05:57:18;3.25;;;3.15;;
5674;SDS011;2860;54.284;10.158;2022-07-29T05:59:45;4.15;;;2.67;;
5674;SDS011;2860;54.284;10.158;2022-07-29T06:02:11;4.80;;;3.85;;
5674;SDS011;2860;54.284;10.158;2022-07-29T06:04:37;4.55;;;2.78;;
5674;SDS011;2860;54.284;10.158;2022-07-29T06:07:02;3.55;;;3.30;;
5674;SDS011;2860;54.284;10.158;2022-07-29T06:09:28;2.58;;;2.45;;
5674;SDS011;2860;54.284;10.158;2022-07-29T06:11:54;2.80;;;2.25;;
5674;SDS011;2860;54.284;10.158;2022-07-29T06:14:19;3.40;;;3.05;;
5674;SDS011;2860;54.284;10.158;2022-07-29T06:16:45;3.63;;;2.38;;
5674;SDS011;2860;54.284;10.158;2022-07-29T06:19:11;2.73;;;2.53;;
5674;SDS011;2860;54.284;10.158;2022-07-29T06:21:38;2.60;;;2.38;;
5674;SDS011;2860;54.284;10.158;2022-07-29T06:24:10;2.97;;;2.55;;
5674;SDS011;2860;54.284;10.158;2022-07-29T06:26:36;2.28;;;2.03;;
5674;SDS011;2860;54.284;10.158;2022-07-29T06:29:03;3.22;;;2.58;;
5674;SDS011;2860;54.284;10.158;2022-07-29T06:31:28;4.07;;;2.67;;
5674;SDS011;2860;54.284;10.158;2022-07-29T06:33:53;2.38;;;2.28;;
5674;SDS011;2860;54.284;10.158;2022-07-29T06:36:19;3.90;;;3.50;;
5674;SDS011;2860;54.284;10.158;2022-07-29T06:38:45;3.50;;;2.17;;
5674;SDS011;2860;54.284;10.158;2022-07-29T06:41:10;2.30;;;2.10;;
5674;SDS011;2860;54.284;10.158;2022-07-29T06:43:41;2.40;;;2.22;;
5674;SDS011;2860;54.284;10.158;2022-07-29T06:46:09;2.45;;;2.25;;
5674;SDS011;2860;54.284;10.158;2022-07-29T06:48:37;3.28;;;2.22;;
5674;SDS011;2860;54.284;10.158;2022-07-29T06:51:04;2.60;;;2.17;;
5674;SDS011;2860;54.284;10.158;2022-07-29T06:53:31;6.03;;;2.30;;
5674;SDS011;2860;54.284;10.158;2022-07-29T06:55:58;6.25;;;2.78;;
5674;SDS011;2860;54.284;10.158;2022-07-29T06:58:24;4.15;;;2.55;;
5674;SDS011;2860;54.284;10.158;2022-07-29T07:00:53;2.08;;;1.98;;
5674;SDS011;2860;54.284;10.158;2022-07-29T07:03:19;3.08;;;1.70;;
5674;SDS011;2860;54.284;10.158;2022-07-29T07:05:45;2.03;;;1.92;;
5674;SDS011;2860;54.284;10.158;2022-07-29T07:08:11;8.07;;;2.20;;
5674;SDS011;2860;54.284;10.158;2022-07-29T07:10:37;7.63;;;2.33;;
5674;SDS011;2860;54.284;10.158;2022-07-29T07:13:03;1.73;;;1.63;;
5674;SDS011;2860;54.284;10.158;2022-07-29T07:15:30;1.90;;;1.80;;
5674;SDS011;2860;54.284;10.158;2022-07-29T07:17:56;3.95;;;2.40;;
5674;SDS011;2860;54.284;10.158;2022-07-29T07:20:22;4.88;;;1.77;;
5674;SDS011;2860;54.284;10.158;2022-07-29T07:22:48;4.57;;;1.70;;
5674;SDS011;2860;54.284;10.158;2022-07-29T07:25:14;3.45;;;1.50;;
5674;SDS011;2860;54.284;10.158;2022-07-29T07:27:39;1.48;;;1.38;;
5674;SDS011;2860;54.284;10.158;2022-07-29T07:30:06;4.50;;;1.40;;
5674;SDS011;2860;54.284;10.158;2022-07-29T07:32:32;1.77;;;1.67;;
5674;SDS011;2860;54.284;10.158;2022-07-29T07:34:58;2.50;;;1.77;;
5674;SDS011;2860;54.284;10.158;2022-07-29T07:37:24;2.25;;;1.45;;
5674;SDS011;2860;54.284;10.158;2022-07-29T07:39:51;1.40;;;1.30;;
5674;SDS011;2860;54.284;10.158;2022-07-29T07:42:17;3.58;;;1.50;;
5674;SDS011;2860;54.284;10.158;2022-07-29T07:44:43;2.10;;;1.83;;
5674;SDS011;2860;54.284;10.158;2022-07-29T07:47:10;4.30;;;1.88;;
5674;SDS011;2860;54.284;10.158;2022-07-29T07:49:36;9.07;;;2.28;;
5674;SDS011;2860;54.284;10.158;2022-07-29T07:52:02;3.05;;;1.55;;
5674;SDS011;2860;54.284;10.158;2022-07-29T07:54:27;4.38;;;1.60;;
5674;SDS011;2860;54.284;10.158;2022-07-29T07:56:53;4.28;;;1.30;;
5674;SDS011;2860;54.284;10.158;2022-07-29T07:59:18;2.25;;;2.05;;
5674;SDS011;2860;54.284;10.158;2022-07-29T08:01:44;2.10;;;1.58;;
5674;SDS011;2860;54.284;10.158;2022-07-29T08:04:09;2.70;;;1.55;;
5674;SDS011;2860;54.284;10.158;2022-07-29T08:06:35;2.92;;;1.90;;
5674;SDS011;2860;54.284;10.158;2022-07-29T08:12:00;1.73;;;1.60;;
5674;SDS011;2860;54.284;10.158;2022-07-29T08:14:30;1.65;;;1.38;;
5674;SDS011;2860;54.284;10.158;2022-07-29T08:16:56;4.30;;;1.88;;
5674;SDS011;2860;54.284;10.158;2022-07-29T08:19:22;2.53;;;1.58;;
5674;SDS011;2860;54.284;10.158;2022-07-29T08:21:47;1.48;;;1.38;;
5674;SDS011;2860;54.284;10.158;2022-07-29T08:24:13;1.88;;;1.33;;
5674;SDS011;2860;54.284;10.158;2022-07-29T08:26:57;3.67;;;1.50;;
5674;SDS011;2860;54.284;10.158;2022-07-29T08:29:23;2.85;;;1.58;;
5674;SDS011;2860;54.284;10.158;2022-07-29T08:31:48;4.32;;;1.67;;
5674;SDS011;2860;54.284;10.158;2022-07-29T08:34:14;3.85;;;1.38;;
5674;SDS011;2860;54.284;10.158;2022-07-29T08:36:39;1.95;;;1.75;;
5674;SDS011;2860;54.284;10.158;2022-07-29T08:39:05;2.75;;;1.60;;
5674;SDS011;2860;54.284;10.158;2022-07-29T08:41:31;2.08;;;1.35;;
5674;SDS011;2860;54.284;10.158;2022-07-29T08:43:56;2.38;;;2.28;;
5674;SDS011;2860;54.284;10.158;2022-07-29T08:46:22;1.67;;;1.50;;
5674;SDS011;2860;54.284;10.158;2022-07-29T08:48:48;1.60;;;1.50;;
5674;SDS011;2860;54.284;10.158;2022-07-29T08:51:15;1.85;;;1.73;;
5674;SDS011;2860;54.284;10.158;2022-07-29T08:53:45;2.90;;;1.70;;
5674;SDS011;2860;54.284;10.158;2022-07-29T08:56:13;3.40;;;1.63;;
5674;SDS011;2860;54.284;10.158;2022-07-29T08:58:42;2.65;;;1.67;;
5674;SDS011;2860;54.284;10.158;2022-07-29T09:01:07;2.40;;;1.75;;
5674;SDS011;2860;54.284;10.158;2022-07-29T09:03:36;1.80;;;1.70;;
5674;SDS011;2860;54.284;10.158;2022-07-29T09:06:02;2.05;;;1.50;;
5674;SDS011;2860;54.284;10.158;2022-07-29T09:08:30;1.60;;;1.50;;
5674;SDS011;2860;54.284;10.158;2022-07-29T09:10:56;5.50;;;1.20;;
5674;SDS011;2860;54.284;10.158;2022-07-29T09:13:23;2.40;;;1.38;;
5674;SDS011;2860;54.284;10.158;2022-07-29T09:15:48;1.70;;;1.38;;
5674;SDS011;2860;54.284;10.158;2022-07-29T09:21:07;4.63;;;1.65;;
5674;SDS011;2860;54.284;10.158;2022-07-29T09:23:59;1.33;;;1.25;;
5674;SDS011;2860;54.284;10.158;2022-07-29T09:26:30;1.95;;;1.10;;
5674;SDS011;2860;54.284;10.158;2022-07-29T09:28:58;4.30;;;1.50;;
5674;SDS011;2860;54.284;10.158;2022-07-29T09:31:33;1.77;;;1.67;;
5674;SDS011;2860;54.284;10.158;2022-07-29T09:34:04;1.80;;;1.70;;
5674;SDS011;2860;54.284;10.158;2022-07-29T09:36:30;1.40;;;1.40;;
5674;SDS011;2860;54.284;10.158;2022-07-29T09:38:59;1.73;;;1.48;;
5674;SDS011;2860;54.284;10.158;2022-07-29T09:41:25;4.72;;;1.73;;
5674;SDS011;2860;54.284;10.158;2022-07-29T09:43:56;1.23;;;1.13;;
5674;SDS011;2860;54.284;10.158;2022-07-29T09:46:23;1.50;;;1.40;;
5674;SDS011;2860;54.284;10.158;2022-07-29T09:51:37;1.65;;;1.50;;
5674;SDS011;2860;54.284;10.158;2022-07-29T09:54:20;2.35;;;1.75;;
5674;SDS011;2860;54.284;10.158;2022-07-29T09:57:01;1.45;;;1.45;;
5674;SDS011;2860;54.284;10.158;2022-07-29T09:59:28;1.83;;;1.50;;
5674;SDS011;2860;54.284;10.158;2022-07-29T10:01:53;1.77;;;1.55;;
5674;SDS011;2860;54.284;10.158;2022-07-29T10:04:19;1.95;;;1.45;;
5674;SDS011;2860;54.284;10.158;2022-07-29T10:07:00;2.20;;;1.42;;
5674;SDS011;2860;54.284;10.158;2022-07-29T10:09:27;2.33;;;1.42;;
5674;SDS011;2860;54.284;10.158;2022-07-29T10:12:06;2.40;;;2.20;;
5674;SDS011;2860;54.284;10.158;2022-07-29T10:14:32;2.10;;;1.48;;
5674;SDS011;2860;54.284;10.158;2022-07-29T10:17:01;1.60;;;1.17;;
5674;SDS011;2860;54.284;10.158;2022-07-29T10:19:28;1.83;;;1.40;;
5674;SDS011;2860;54.284;10.158;2022-07-29T10:21:56;3.00;;;1.10;;
5674;SDS011;2860;54.284;10.158;2022-07-29T10:24:24;1.83;;;1.70;;
5674;SDS011;2860;54.284;10.158;2022-07-29T10:26:51;1.90;;;1.63;;
5674;SDS011;2860;54.284;10.158;2022-07-29T10:29:19;1.67;;;1.58;;
5674;SDS011;2860;54.284;10.158;2022-07-29T10:31:49;1.30;;;1.30;;
5674;SDS011;2860;54.284;10.158;2022-07-29T10:34:44;1.20;;;1.20;;
5674;SDS011;2860;54.284;10.158;2022-07-29T10:40:28;1.42;;;1.38;;
5674;SDS011;2860;54.284;10.158;2022-07-29T10:43:35;1.30;;;1.30;;
5674;SDS011;2860;54.284;10.158;2022-07-29T10:46:05;1.23;;;1.20;;
5674;SDS011;2860;54.284;10.158;2022-07-29T10:48:32;1.60;;;1.30;;
5674;SDS011;2860;54.284;10.158;2022-07-29T10:50:59;6.43;;;1.67;;
5674;SDS011;2860;54.284;10.158;2022-07-29T10:56:28;1.85;;;1.15;;
5674;SDS011;2860;54.284;10.158;2022-07-29T11:01:48;1.65;;;1.25;;
5674;SDS011;2860;54.284;10.158;2022-07-29T11:04:15;2.85;;;1.67;;
5674;SDS011;2860;54.284;10.158;2022-07-29T11:09:27;1.30;;;1.27;;
5674;SDS011;2860;54.284;10.158;2022-07-29T11:11:55;2.45;;;1.30;;
5674;SDS011;2860;54.284;10.158;2022-07-29T11:17:17;1.95;;;1.30;;
5674;SDS011;2860;54.284;10.158;2022-07-29T11:19:43;1.73;;;1.20;;
5674;SDS011;2860;54.284;10.158;2022-07-29T11:22:09;2.97;;;1.20;;
5674;SDS011;2860;54.284;10.158;2022-07-29T11:24:35;2.58;;;1.50;;
5674;SDS011;2860;54.284;10.158;2022-07-29T11:29:34;3.42;;;1.08;;
5674;SDS011;2860;54.284;10.158;2022-07-29T11:32:11;7.10;;;1.80;;
5674;SDS011;2860;54.284;10.158;2022-07-29T11:34:39;1.98;;;1.10;;
5674;SDS011;2860;54.284;10.158;2022-07-29T11:47:26;2.20;;;1.13;;
5674;SDS011;2860;54.284;10.158;2022-07-29T11:49:53;3.13;;;1.23;;
5674;SDS011;2860;54.284;10.158;2022-07-29T11:52:20;3.42;;;1.15;;
5674;SDS011;2860;54.284;10.158;2022-07-29T11:54:49;1.58;;;1.13;;
5674;SDS011;2860;54.284;10.158;2022-07-29T11:57:16;1.50;;;1.40;;
5674;SDS011;2860;54.284;10.158;2022-07-29T11:59:43;3.80;;;1.30;;
5674;SDS011;2860;54.284;10.158;2022-07-29T12:02:11;3.08;;;1.55;;
5674;SDS011;2860;54.284;10.158;2022-07-29T12:04:54;1.92;;;1.25;;
5674;SDS011;2860;54.284;10.158;2022-07-29T12:07:28;1.08;;;0.93;;
5674;SDS011;2860;54.284;10.158;2022-07-29T12:09:58;3.05;;;1.75;;
5674;SDS011;2860;54.284;10.158;2022-07-29T12:12:23;2.20;;;1.63;;
5674;SDS011;2860;54.284;10.158;2022-07-29T12:14:52;1.20;;;1.10;;
5674;SDS011;2860;54.284;10.158;2022-07-29T12:17:26;2.47;;;1.40;;
5674;SDS011;2860;54.284;10.158;2022-07-29T12:19:53;2.72;;;1.65;;
5674;SDS011;2860;54.284;10.158;2022-07-29T12:24:51;1.52;;;1.42;;
5674;SDS011;2860;54.284;10.158;2022-07-29T12:27:17;2.00;;;1.83;;
5674;SDS011;2860;54.284;10.158;2022-07-29T12:29:43;2.80;;;1.55;;
5674;SDS011;2860;54.284;10.158;2022-07-29T12:32:09;3.25;;;2.78;;
5674;SDS011;2860;54.284;10.158;2022-07-29T12:34:35;1.70;;;1.50;;
5674;SDS011;2860;54.284;10.158;2022-07-29T12:37:00;1.85;;;1.83;;
5674;SDS011;2860;54.284;10.158;2022-07-29T12:39:27;2.95;;;1.40;;
5674;SDS011;2860;54.284;10.158;2022-07-29T12:41:53;1.90;;;1.75;;
5674;SDS011;2860;54.284;10.158;2022-07-29T12:44:21;2.35;;;1.27;;
5674;SDS011;2860;54.284;10.158;2022-07-29T12:47:00;4.15;;;1.50;;
5674;SDS011;2860;54.284;10.158;2022-07-29T12:49:27;4.13;;;1.77;;
5674;SDS011;2860;54.284;10.158;2022-07-29T12:51:52;6.03;;;1.20;;
5674;SDS011;2860;54.284;10.158;2022-07-29T12:54:18;3.10;;;1.60;;
5674;SDS011;2860;54.284;10.158;2022-07-29T12:56:44;1.35;;;1.35;;
5674;SDS011;2860;54.284;10.158;2022-07-29T13:01:45;2.08;;;1.38;;
5674;SDS011;2860;54.284;10.158;2022-07-29T13:04:27;2.30;;;2.05;;
5674;SDS011;2860;54.284;10.158;2022-07-29T13:07:03;2.75;;;1.95;;
5674;SDS011;2860;54.284;10.158;2022-07-29T13:09:38;6.10;;;2.25;;
5674;SDS011;2860;54.284;10.158;2022-07-29T13:12:08;2.95;;;2.00;;
5674;SDS011;2860;54.284;10.158;2022-07-29T13:14:42;1.70;;;1.70;;
5674;SDS011;2860;54.284;10.158;2022-07-29T13:17:15;3.53;;;1.85;;
5674;SDS011;2860;54.284;10.158;2022-07-29T13:22:09;2.63;;;1.73;;
5674;SDS011;2860;54.284;10.158;2022-07-29T13:24:50;2.22;;;1.52;;
5674;SDS011;2860;54.284;10.158;2022-07-29T13:27:17;1.60;;;1.60;;
5674;SDS011;2860;54.284;10.158;2022-07-29T13:29:44;2.58;;;1.50;;
5674;SDS011;2860;54.284;10.158;2022-07-29T13:32:09;6.00;;;1.60;;
5674;SDS011;2860;54.284;10.158;2022-07-29T13:34:35;1.50;;;1.50;;
5674;SDS011;2860;54.284;10.158;2022-07-29T13:37:01;4.32;;;1.88;;
5674;SDS011;2860;54.284;10.158;2022-07-29T13:39:27;5.68;;;1.50;;
5674;SDS011;2860;54.284;10.158;2022-07-29T13:41:52;1.40;;;1.30;;
5674;SDS011;2860;54.284;10.158;2022-07-29T13:44:19;2.47;;;1.45;;
5674;SDS011;2860;54.284;10.158;2022-07-29T13:46:44;4.78;;;1.40;;
5674;SDS011;2860;54.284;10.158;2022-07-29T13:49:10;1.85;;;1.65;;
5674;SDS011;2860;54.284;10.158;2022-07-29T13:51:36;4.85;;;2.03;;
5674;SDS011;2860;54.284;10.158;2022-07-29T13:54:02;1.77;;;1.75;;
5674;SDS011;2860;54.284;10.158;2022-07-29T13:56:27;1.98;;;1.80;;
5674;SDS011;2860;54.284;10.158;2022-07-29T13:58:53;2.05;;;1.95;;
5674;SDS011;2860;54.284;10.158;2022-07-29T14:01:19;3.78;;;1.73;;
5674;SDS011;2860;54.284;10.158;2022-07-29T14:03:44;1.70;;;1.60;;
5674;SDS011;2860;54.284;10.158;2022-07-29T14:06:10;2.60;;;2.50;;
5674;SDS011;2860;54.284;10.158;2022-07-29T14:08:35;1.75;;;1.75;;
5674;SDS011;2860;54.284;10.158;2022-07-29T14:11:01;2.47;;;2.00;;
5674;SDS011;2860;54.284;10.158;2022-07-29T14:13:27;3.15;;;2.08;;
5674;SDS011;2860;54.284;10.158;2022-07-29T14:15:55;1.95;;;1.85;;
5674;SDS011;2860;54.284;10.158;2022-07-29T14:18:45;2.90;;;1.80;;
5674;SDS011;2860;54.284;10.158;2022-07-29T14:21:11;4.88;;;2.72;;
5674;SDS011;2860;54.284;10.158;2022-07-29T14:23:37;2.13;;;2.03;;
5674;SDS011;2860;54.284;10.158;2022-07-29T14:26:02;7.13;;;2.30;;
5674;SDS011;2860;54.284;10.158;2022-07-29T14:28:28;1.75;;;1.67;;
5674;SDS011;2860;54.284;10.158;2022-07-29T14:30:53;2.63;;;1.63;;
5674;SDS011;2860;54.284;10.158;2022-07-29T14:33:19;1.90;;;1.80;;
5674;SDS011;2860;54.284;10.158;2022-07-29T14:35:44;6.20;;;1.67;;
5674;SDS011;2860;54.284;10.158;2022-07-29T14:38:10;2.63;;;2.10;;
5674;SDS011;2860;54.284;10.158;2022-07-29T14:40:35;5.35;;;1.80;;
5674;SDS011;2860;54.284;10.158;2022-07-29T14:43:01;3.30;;;1.50;;
5674;SDS011;2860;54.284;10.158;2022-07-29T14:45:27;1.77;;;1.67;;
5674;SDS011;2860;54.284;10.158;2022-07-29T14:47:53;2.25;;;1.73;;
5674;SDS011;2860;54.284;10.158;2022-07-29T14:50:19;4.88;;;2.22;;
5674;SDS011;2860;54.284;10.158;2022-07-29T14:52:45;1.30;;;1.30;;
5674;SDS011;2860;54.284;10.158;2022-07-29T14:55:11;4.88;;;1.50;;
5674;SDS011;2860;54.284;10.158;2022-07-29T14:57:36;1.65;;;1.50;;
5674;SDS011;2860;54.284;10.158;2022-07-29T15:00:03;3.45;;;1.50;;
5674;SDS011;2860;54.284;10.158;2022-07-29T15:02:30;1.65;;;1.60;;
5674;SDS011;2860;54.284;10.158;2022-07-29T15:04:56;2.38;;;2.17;;
5674;SDS011;2860;54.284;10.158;2022-07-29T15:07:21;1.95;;;1.83;;
5674;SDS011;2860;54.284;10.158;2022-07-29T15:09:47;3.35;;;1.73;;
5674;SDS011;2860;54.284;10.158;2022-07-29T15:12:12;3.15;;;1.40;;
5674;SDS011;2860;54.284;10.158;2022-07-29T15:14:38;2.67;;;1.40;;
5674;SDS011;2860;54.284;10.158;2022-07-29T15:17:04;1.88;;;1.77;;
5674;SDS011;2860;54.284;10.158;2022-07-29T15:19:29;1.70;;;1.60;;
5674;SDS011;2860;54.284;10.158;2022-07-29T15:21:55;4.82;;;1.40;;
5674;SDS011;2860;54.284;10.158;2022-07-29T15:24:20;5.40;;;1.42;;
5674;SDS011;2860;54.284;10.158;2022-07-29T15:26:46;1.40;;;1.30;;
5674;SDS011;2860;54.284;10.158;2022-07-29T15:29:12;3.33;;;1.50;;
5674;SDS011;2860;54.284;10.158;2022-07-29T15:31:38;3.28;;;1.30;;
5674;SDS011;2860;54.284;10.158;2022-07-29T15:34:04;2.35;;;1.20;;
5674;SDS011;2860;54.284;10.158;2022-07-29T15:36:30;1.00;;;1.00;;
5674;SDS011;2860;54.284;10.158;2022-07-29T15:38:56;1.08;;;0.82;;
5674;SDS011;2860;54.284;10.158;2022-07-29T15:41:21;2.00;;;0.90;;
5674;SDS011;2860;54.284;10.158;2022-07-29T15:43:47;1.55;;;1.20;;
5674;SDS011;2860;54.284;10.158;2022-07-29T15:46:14;2.70;;;1.42;;
5674;SDS011;2860;54.284;10.158;2022-07-29T15:48:59;1.27;;;1.20;;
5674;SDS011;2860;54.284;10.158;2022-07-29T15:51:25;1.15;;;1.15;;
5674;SDS011;2860;54.284;10.158;2022-07-29T15:53:51;2.72;;;1.13;;
5674;SDS011;2860;54.284;10.158;2022-07-29T15:56:16;2.97;;;1.33;;
5674;SDS011;2860;54.284;10.158;2022-07-29T15:58:42;1.40;;;1.27;;
5674;SDS011;2860;54.284;10.158;2022-07-29T16:01:07;1.17;;;1.17;;
5674;SDS011;2860;54.284;10.158;2022-07-29T16:03:33;3.65;;;1.30;;
5674;SDS011;2860;54.284;10.158;2022-07-29T16:05:59;1.60;;;1.60;;
5674;SDS011;2860;54.284;10.158;2022-07-29T16:08:24;2.28;;;1.20;;
5674;SDS011;2860;54.284;10.158;2022-07-29T16:10:50;1.52;;;1.42;;
5674;SDS011;2860;54.284;10.158;2022-07-29T16:13:15;2.55;;;1.40;;